Aviation

FTHA31 MTPP 201630
TAF MTPP 201630Z 2018/2118 29013KT 9000 FEW024
PROB40 TEMPO 2100/2106 4800 SHRA SCT014 BKN030
BECMG 2108/2112 VRB02KT 9000 NSW FEW018
FM211300 09010KT 9000 FEW020=